createdAt,value
2022-11-17T00:04:18.170Z,4.80
2022-11-17T00:06:45.424Z,4.50
2022-11-17T00:09:16.547Z,4.60
2022-11-17T00:12:01.228Z,4.40
2022-11-17T00:14:33.692Z,4.50
2022-11-17T00:17:00.765Z,4.30
2022-11-17T00:19:53.814Z,4.30
2022-11-17T00:22:21.542Z,4.70
2022-11-17T00:24:49.730Z,4.30
2022-11-17T00:27:16.543Z,4.50
2022-11-17T00:29:43.264Z,4.30
2022-11-17T00:32:30.222Z,4.30
2022-11-17T00:37:25.135Z,4.20
2022-11-17T00:39:54.140Z,4.30
2022-11-17T00:44:52.341Z,4.20
2022-11-17T00:47:19.063Z,4.30
2022-11-17T00:52:12.753Z,4.50
2022-11-17T00:54:40.008Z,4.20
2022-11-17T00:57:06.592Z,4.30
2022-11-17T01:02:00.188Z,4.20
2022-11-17T01:09:23.544Z,4.00
2022-11-17T01:11:52.730Z,4.10
2022-11-17T01:14:22.110Z,4.00
2022-11-17T01:19:18.670Z,4.10
2022-11-17T01:21:46.143Z,4.00
2022-11-17T01:29:11.597Z,4.00
2022-11-17T01:31:39.853Z,4.30
2022-11-17T01:34:07.552Z,3.90
2022-11-17T01:36:56.435Z,4.00
2022-11-17T01:39:24.027Z,4.00
2022-11-17T01:45:09.671Z,4.00
2022-11-17T01:47:42.322Z,4.00
2022-11-17T01:50:19.728Z,4.30
2022-11-17T01:52:48.583Z,4.50
2022-11-17T01:57:47.021Z,3.90
2022-11-17T02:00:14.686Z,3.90
2022-11-17T02:02:43.198Z,3.90
2022-11-17T02:05:19.502Z,3.90
2022-11-17T02:07:48.180Z,3.80
2022-11-17T02:10:15.155Z,3.90
2022-11-17T02:15:13.356Z,3.70
2022-11-17T02:17:42.594Z,4.10
2022-11-17T02:20:14.718Z,3.90
2022-11-17T02:23:22.867Z,4.00
2022-11-17T02:26:18.037Z,4.20
2022-11-17T02:28:52.595Z,3.90
2022-11-17T02:31:29.728Z,3.90
2022-11-17T02:34:06.462Z,2.80
2022-11-17T02:36:36.553Z,3.90
2022-11-17T02:39:12.432Z,3.90
2022-11-17T02:41:46.400Z,3.80
2022-11-17T02:44:18.878Z,4.10
2022-11-17T02:46:52.334Z,3.90
2022-11-17T02:49:23.224Z,3.90
2022-11-17T02:51:53.949Z,3.90
2022-11-17T02:54:22.566Z,3.80
2022-11-17T02:56:50.494Z,3.80
2022-11-17T02:59:23.437Z,3.90
2022-11-17T03:02:30.375Z,3.70
2022-11-17T03:05:08.629Z,3.90
2022-11-17T03:07:58.143Z,3.80
2022-11-17T03:10:29.970Z,3.80
2022-11-17T03:13:05.814Z,3.90
2022-11-17T03:15:42.534Z,3.80
2022-11-17T03:18:17.355Z,3.80
2022-11-17T03:20:55.354Z,3.60
2022-11-17T03:23:28.863Z,3.70
2022-11-17T03:25:57.961Z,3.80
2022-11-17T03:28:29.354Z,3.80
2022-11-17T03:31:05.096Z,3.70
2022-11-17T03:33:33.045Z,3.70
2022-11-17T03:36:03.844Z,3.70
2022-11-17T03:38:36.136Z,3.80
2022-11-17T03:41:05.636Z,3.60
2022-11-17T03:43:33.206Z,3.70
2022-11-17T03:46:05.468Z,3.70
2022-11-17T03:48:37.611Z,4.40
2022-11-17T03:51:08.589Z,3.70
2022-11-17T03:53:36.042Z,3.70
2022-11-17T03:56:10.354Z,3.80
2022-11-17T03:58:44.250Z,4.10
2022-11-17T04:01:15.384Z,3.80
2022-11-17T04:03:42.220Z,3.40
2022-11-17T04:06:08.822Z,4.00
2022-11-17T04:08:35.454Z,3.70
2022-11-17T04:11:16.612Z,3.90
2022-11-17T04:14:01.564Z,3.80
2022-11-17T04:16:28.833Z,4.10
2022-11-17T04:18:58.886Z,3.60
2022-11-17T04:23:53.070Z,3.80
2022-11-17T04:29:05.087Z,3.80
2022-11-17T04:31:32.341Z,3.90
2022-11-17T04:34:00.858Z,3.70
2022-11-17T04:36:29.223Z,3.60
2022-11-17T04:38:58.041Z,3.80
2022-11-17T04:41:45.005Z,3.60
2022-11-17T04:44:14.304Z,3.80
2022-11-17T04:46:43.631Z,3.80
2022-11-17T04:51:38.073Z,3.50
2022-11-17T04:54:06.590Z,3.90
2022-11-17T04:56:34.662Z,3.80
2022-11-17T04:59:01.460Z,3.20
2022-11-17T05:01:28.401Z,3.90
2022-11-17T05:03:57.372Z,3.80
2022-11-17T05:06:26.019Z,4.00
2022-11-17T05:08:55.132Z,3.90
2022-11-17T05:11:41.112Z,4.10
2022-11-17T05:14:07.952Z,3.70
2022-11-17T05:16:53.040Z,4.00
2022-11-17T05:19:22.172Z,3.90
2022-11-17T05:21:49.181Z,4.00
2022-11-17T05:24:16.249Z,4.00
2022-11-17T05:26:45.038Z,4.10
2022-11-17T05:29:13.420Z,4.00
2022-11-17T05:31:40.476Z,4.00
2022-11-17T05:34:08.644Z,4.00
2022-11-17T05:36:36.080Z,4.30
2022-11-17T05:39:03.473Z,4.00
2022-11-17T05:43:58.786Z,4.10
2022-11-17T05:46:25.990Z,4.00
2022-11-17T05:48:53.620Z,3.90
2022-11-17T05:51:22.487Z,4.20
2022-11-17T05:53:50.562Z,3.90
2022-11-17T05:56:27.608Z,4.10
2022-11-17T05:59:00.877Z,4.10
2022-11-17T06:01:28.797Z,3.80
2022-11-17T06:03:59.408Z,3.90
2022-11-17T06:06:27.289Z,4.40
2022-11-17T06:08:55.373Z,4.10
2022-11-17T06:13:51.399Z,4.20
2022-11-17T06:16:25.056Z,4.10
2022-11-17T06:18:56.314Z,4.10
2022-11-17T06:21:23.501Z,4.20
2022-11-17T06:23:51.905Z,4.50
2022-11-17T06:26:19.800Z,4.20
2022-11-17T06:28:50.643Z,4.30
2022-11-17T06:31:18.347Z,4.30
2022-11-17T06:33:47.133Z,4.30
2022-11-17T06:36:16.447Z,4.40
2022-11-17T06:38:43.072Z,4.70
2022-11-17T06:41:12.065Z,4.30
2022-11-17T06:43:39.600Z,4.30
2022-11-17T06:46:06.219Z,4.30
2022-11-17T06:51:04.485Z,4.40
2022-11-17T06:53:32.618Z,4.50
2022-11-17T06:56:04.617Z,4.70
2022-11-17T07:01:02.741Z,4.50
2022-11-17T07:05:59.054Z,4.50
2022-11-17T07:08:25.800Z,5.00
2022-11-17T07:10:54.058Z,4.30
2022-11-17T07:13:21.014Z,4.50
2022-11-17T07:15:48.914Z,4.60
2022-11-17T07:18:20.185Z,4.50
2022-11-17T07:20:47.480Z,4.80
2022-11-17T07:23:14.429Z,4.60
2022-11-17T07:25:41.197Z,4.40
2022-11-17T07:28:08.340Z,4.90
2022-11-17T07:30:35.542Z,4.50
2022-11-17T07:33:02.327Z,4.90
2022-11-17T07:35:30.063Z,4.60
2022-11-17T07:37:58.590Z,4.60
2022-11-17T07:40:25.616Z,4.40
2022-11-17T07:42:55.710Z,5.00
2022-11-17T07:45:24.145Z,6.80
2022-11-17T07:47:55.349Z,4.70
2022-11-17T07:50:22.982Z,4.70
2022-11-17T07:52:50.355Z,4.70
2022-11-17T07:55:17.593Z,4.70
2022-11-17T07:57:44.620Z,4.70
2022-11-17T08:00:13.115Z,4.90
2022-11-17T08:02:40.381Z,5.10
2022-11-17T08:05:08.127Z,4.60
2022-11-17T08:07:35.661Z,4.70
2022-11-17T08:10:07.982Z,4.80
2022-11-17T08:12:38.605Z,4.90
2022-11-17T08:15:07.482Z,5.10
2022-11-17T08:20:01.356Z,4.70
2022-11-17T08:22:29.735Z,4.90
2022-11-17T08:24:57.184Z,4.90
2022-11-17T08:27:24.859Z,5.00
2022-11-17T08:29:52.103Z,4.90
2022-11-17T08:34:48.671Z,5.10
2022-11-17T08:44:39.433Z,6.80
2022-11-17T08:54:33.458Z,4.70
2022-11-17T08:57:00.557Z,5.00
2022-11-17T09:01:55.290Z,4.80
2022-11-17T09:04:22.131Z,4.80
2022-11-17T09:06:49.999Z,4.80
2022-11-17T09:09:19.189Z,5.10
2022-11-17T09:16:41.784Z,4.90
2022-11-17T09:19:13.963Z,3.00
2022-11-17T09:22:03.803Z,5.20
2022-11-17T09:24:30.942Z,5.20
2022-11-17T09:27:01.961Z,5.00
2022-11-17T09:29:34.252Z,5.00
2022-11-17T09:32:02.514Z,5.00
2022-11-17T09:34:32.483Z,4.90
2022-11-17T09:42:03.783Z,5.10
2022-11-17T09:44:40.078Z,5.00
2022-11-17T09:47:21.235Z,5.00
2022-11-17T09:49:59.243Z,5.00
2022-11-17T09:52:31.855Z,4.60
2022-11-17T09:55:01.974Z,5.10
2022-11-17T09:57:34.541Z,5.00
2022-11-17T10:00:08.565Z,4.80
2022-11-17T10:02:37.387Z,5.00
2022-11-17T10:05:06.787Z,5.10
2022-11-17T10:07:35.179Z,5.10
2022-11-17T10:10:07.940Z,6.00
2022-11-17T10:12:44.128Z,5.00
2022-11-17T10:15:25.794Z,5.00
2022-11-17T10:20:20.503Z,5.30
2022-11-17T10:22:49.751Z,5.20
2022-11-17T10:25:36.363Z,5.20
2022-11-17T10:28:03.576Z,5.20
2022-11-17T10:30:30.397Z,5.20
2022-11-17T10:33:00.195Z,5.20
2022-11-17T10:35:30.626Z,5.10
2022-11-17T10:37:59.014Z,5.40
2022-11-17T10:40:27.324Z,5.40
2022-11-17T10:42:59.572Z,5.30
2022-11-17T10:45:26.623Z,2.00
2022-11-17T10:48:08.307Z,5.70
2022-11-17T10:50:36.183Z,5.20
2022-11-17T10:53:22.292Z,5.50
2022-11-17T10:55:55.579Z,5.50
2022-11-17T10:58:26.191Z,5.20
2022-11-17T11:00:55.847Z,5.20
2022-11-17T11:03:24.153Z,5.20
2022-11-17T11:06:02.842Z,5.20
2022-11-17T11:08:41.316Z,5.30
2022-11-17T11:11:17.721Z,5.40
2022-11-17T11:13:54.807Z,6.10
2022-11-17T11:16:22.524Z,5.30
2022-11-17T11:18:52.992Z,5.20
2022-11-17T11:21:35.572Z,5.30
2022-11-17T11:24:13.150Z,5.00
2022-11-17T11:26:56.591Z,5.70
2022-11-17T11:29:37.334Z,5.40
2022-11-17T11:32:23.899Z,5.30
2022-11-17T11:35:17.333Z,5.10
2022-11-17T11:37:56.231Z,5.40
2022-11-17T11:40:29.206Z,5.10
2022-11-17T11:42:58.852Z,5.30
2022-11-17T11:45:49.997Z,6.80
2022-11-17T11:48:20.623Z,5.40
2022-11-17T11:50:57.424Z,5.30
2022-11-17T11:53:32.209Z,5.30
2022-11-17T11:56:15.219Z,5.00
2022-11-17T11:58:47.636Z,5.20
2022-11-17T12:01:17.145Z,5.70
2022-11-17T12:03:48.845Z,5.40
2022-11-17T12:06:43.052Z,5.20
2022-11-17T12:09:26.360Z,5.30
2022-11-17T12:12:00.215Z,5.30
2022-11-17T12:14:28.115Z,5.40
2022-11-17T12:17:03.386Z,5.60
2022-11-17T12:19:54.672Z,5.50
2022-11-17T12:22:58.623Z,5.40
2022-11-17T12:25:29.058Z,5.70
2022-11-17T12:27:56.001Z,5.50
2022-11-17T12:30:53.997Z,5.40
2022-11-17T12:33:21.561Z,5.70
2022-11-17T12:36:30.623Z,5.40
2022-11-17T12:38:58.839Z,5.50
2022-11-17T12:42:04.521Z,5.70
2022-11-17T12:45:02.316Z,5.40
2022-11-17T12:47:30.999Z,5.30
2022-11-17T12:50:38.668Z,5.40
2022-11-17T12:53:29.262Z,5.60
2022-11-17T12:56:17.983Z,5.10
2022-11-17T12:58:59.539Z,5.40
2022-11-17T13:01:37.327Z,5.20
2022-11-17T13:04:10.933Z,5.30
2022-11-17T13:06:39.159Z,5.20
2022-11-17T13:09:11.540Z,5.20
2022-11-17T13:11:38.887Z,5.60
2022-11-17T13:14:12.560Z,5.40
2022-11-17T13:16:47.755Z,5.50
2022-11-17T13:19:31.939Z,5.20
2022-11-17T13:22:01.083Z,5.30
2022-11-17T13:24:33.099Z,5.20
2022-11-17T13:27:01.201Z,5.40
2022-11-17T13:29:31.727Z,5.50
2022-11-17T13:32:16.797Z,8.10
2022-11-17T13:34:51.130Z,5.20
2022-11-17T13:37:26.583Z,5.30
2022-11-17T13:40:01.206Z,5.30
2022-11-17T13:42:31.452Z,5.40
2022-11-17T13:45:01.412Z,5.10
2022-11-17T13:47:43.123Z,5.20
2022-11-17T13:50:36.509Z,4.80
2022-11-17T13:53:18.338Z,5.10
2022-11-17T13:55:46.031Z,5.20
2022-11-17T13:58:26.941Z,5.10
2022-11-17T14:00:56.785Z,5.20
2022-11-17T14:03:35.837Z,5.10
2022-11-17T14:06:04.894Z,5.10
2022-11-17T14:08:32.840Z,5.10
2022-11-17T14:11:20.618Z,5.00
2022-11-17T14:13:49.354Z,4.70
2022-11-17T14:16:21.808Z,5.00
2022-11-17T14:18:57.218Z,4.90
2022-11-17T14:21:24.183Z,4.90
2022-11-17T14:24:02.380Z,4.80
2022-11-17T14:26:29.978Z,5.10
2022-11-17T14:31:32.658Z,4.90
2022-11-17T14:38:55.096Z,5.20
2022-11-17T14:43:49.891Z,5.10
2022-11-17T14:46:23.256Z,4.80
2022-11-17T14:48:51.847Z,4.70
2022-11-17T14:51:22.756Z,5.10
2022-11-17T14:53:49.967Z,4.90
2022-11-17T14:56:19.537Z,4.80
2022-11-17T14:58:47.138Z,4.70
2022-11-17T15:01:17.951Z,5.00
2022-11-17T15:03:45.771Z,5.10
2022-11-17T15:06:19.341Z,4.70
2022-11-17T15:08:49.820Z,4.60
2022-11-17T15:11:18.937Z,4.50
2022-11-17T15:16:14.488Z,4.90
2022-11-17T15:18:44.421Z,4.70
2022-11-17T15:21:11.692Z,4.80
2022-11-17T15:23:40.754Z,4.70
2022-11-17T15:26:10.700Z,4.60
2022-11-17T15:28:37.453Z,4.70
2022-11-17T15:31:11.778Z,4.80
2022-11-17T15:33:40.272Z,4.80
2022-11-17T15:36:09.186Z,4.60
2022-11-17T15:38:37.102Z,4.70
2022-11-17T15:41:04.002Z,4.90
2022-11-17T15:43:34.523Z,4.40
2022-11-17T15:46:02.946Z,4.60
2022-11-17T15:48:31.870Z,4.80
2022-11-17T15:50:59.634Z,4.90
2022-11-17T15:53:31.627Z,4.60
2022-11-17T15:56:15.841Z,4.50
2022-11-17T15:58:43.512Z,4.50
2022-11-17T16:01:12.327Z,4.60
2022-11-17T16:03:40.393Z,4.60
2022-11-17T16:06:08.523Z,4.50
2022-11-17T16:08:36.483Z,4.50
2022-11-17T16:11:04.458Z,4.50
2022-11-17T16:13:32.028Z,4.50
2022-11-17T16:15:59.070Z,4.20
2022-11-17T16:18:26.173Z,4.50
2022-11-17T16:20:52.992Z,4.50
2022-11-17T16:25:48.030Z,4.30
2022-11-17T16:28:16.701Z,4.40
2022-11-17T16:30:45.092Z,4.20
2022-11-17T16:33:13.776Z,4.30
2022-11-17T16:35:40.786Z,4.30
2022-11-17T16:38:10.203Z,4.00
2022-11-17T16:40:38.734Z,4.10
2022-11-17T16:43:05.798Z,4.30
2022-11-17T16:45:41.467Z,3.90
2022-11-17T16:50:40.046Z,4.10
2022-11-17T16:53:06.977Z,3.80
2022-11-17T16:55:35.072Z,4.00
2022-11-17T16:58:05.517Z,4.10
2022-11-17T17:00:38.108Z,4.20
2022-11-17T17:05:39.660Z,1.00
2022-11-17T17:10:40.501Z,4.10
2022-11-17T17:13:08.650Z,4.30
2022-11-17T17:15:40.399Z,4.00
2022-11-17T17:18:09.589Z,4.20
2022-11-17T17:20:37.913Z,4.10
2022-11-17T17:35:21.121Z,4.10
2022-11-17T17:37:52.103Z,3.80
2022-11-17T17:40:20.232Z,4.20
2022-11-17T17:42:46.820Z,4.00
2022-11-17T17:55:06.024Z,4.00
2022-11-17T18:00:00.939Z,3.80
2022-11-17T18:02:27.535Z,4.00
2022-11-17T18:07:21.119Z,4.20
2022-11-17T18:09:48.087Z,4.00
2022-11-17T18:12:15.347Z,4.30
2022-11-17T18:14:43.005Z,4.00
2022-11-17T18:17:09.675Z,3.80
2022-11-17T18:24:33.054Z,3.80
2022-11-17T18:29:27.877Z,3.60
2022-11-17T18:31:54.595Z,3.70
2022-11-17T18:34:23.252Z,3.70
2022-11-17T18:36:51.393Z,3.60
2022-11-17T18:39:19.099Z,3.30
2022-11-17T18:42:01.079Z,3.40
2022-11-17T18:44:31.207Z,3.60
2022-11-17T18:47:02.509Z,3.50
2022-11-17T18:49:31.592Z,3.60
2022-11-17T18:51:58.788Z,3.30
2022-11-17T18:54:29.195Z,3.70
2022-11-17T18:57:04.676Z,3.70
2022-11-17T19:02:29.304Z,3.50
2022-11-17T19:05:06.168Z,3.60
2022-11-17T19:13:33.275Z,3.50
2022-11-17T19:16:28.939Z,3.70
2022-11-17T19:19:19.983Z,3.70
2022-11-17T19:24:32.492Z,3.60
2022-11-17T19:27:26.778Z,3.40
2022-11-17T19:32:27.382Z,3.30
2022-11-17T19:34:57.834Z,3.10
2022-11-17T19:37:30.758Z,3.50
2022-11-17T19:39:57.631Z,3.20
2022-11-17T19:47:19.339Z,3.20
2022-11-17T19:49:47.782Z,3.10
2022-11-17T19:52:14.355Z,3.60
2022-11-17T19:54:40.975Z,3.10
2022-11-17T19:57:07.931Z,3.00
2022-11-17T19:59:34.553Z,3.00
2022-11-17T20:02:01.187Z,2.70
2022-11-17T20:06:57.650Z,3.00
2022-11-17T20:11:51.249Z,3.00
2022-11-17T20:14:18.228Z,3.10
2022-11-17T20:16:45.137Z,2.70
2022-11-17T20:19:16.311Z,3.10
2022-11-17T20:26:40.445Z,2.80
2022-11-17T20:29:08.512Z,2.90
2022-11-17T20:31:36.890Z,2.70
2022-11-17T20:34:06.349Z,3.00
2022-11-17T20:36:33.914Z,2.80
2022-11-17T20:39:02.303Z,2.90
2022-11-17T20:41:33.818Z,2.90
2022-11-17T20:44:02.937Z,2.70
2022-11-17T20:46:30.069Z,3.00
2022-11-17T20:48:58.424Z,3.00
2022-11-17T20:51:26.443Z,2.80
2022-11-17T20:53:53.283Z,3.30
2022-11-17T20:56:20.526Z,3.10
2022-11-17T20:58:47.983Z,2.90
2022-11-17T21:01:16.784Z,3.30
2022-11-17T21:03:44.883Z,2.90
2022-11-17T21:06:12.195Z,2.90
2022-11-17T21:08:40.727Z,2.80
2022-11-17T21:11:09.295Z,3.10
2022-11-17T21:13:37.247Z,2.80
2022-11-17T21:16:07.187Z,2.70
2022-11-17T21:18:34.409Z,2.50
2022-11-17T21:23:30.667Z,2.50
2022-11-17T21:25:57.396Z,2.70
2022-11-17T21:28:24.115Z,2.80
2022-11-17T21:33:18.473Z,2.80
2022-11-17T21:40:41.938Z,2.40
2022-11-17T21:43:08.647Z,2.50
2022-11-17T21:48:06.242Z,2.50
2022-11-17T21:50:34.082Z,2.50
2022-11-17T21:55:30.462Z,2.50
2022-11-17T22:00:27.528Z,2.80
2022-11-17T22:02:54.705Z,2.70
2022-11-17T22:07:53.527Z,2.20
2022-11-17T22:10:20.366Z,2.60
2022-11-17T22:15:14.147Z,2.60
2022-11-17T22:20:10.156Z,2.80
2022-11-17T22:25:29.929Z,2.70
2022-11-17T22:30:21.718Z,2.50
2022-11-17T22:32:49.576Z,2.40
2022-11-17T22:37:43.165Z,2.40
2022-11-17T22:40:11.246Z,2.10
2022-11-17T22:45:05.579Z,2.40
2022-11-17T22:49:59.090Z,2.80
2022-11-17T22:52:25.960Z,2.40
2022-11-17T22:54:53.014Z,2.20
2022-11-17T22:57:20.300Z,2.30
2022-11-17T22:59:47.407Z,2.60
2022-11-17T23:07:08.188Z,2.20
2022-11-17T23:12:02.031Z,2.30
2022-11-17T23:14:29.380Z,2.30
2022-11-17T23:16:56.126Z,2.40
2022-11-17T23:21:50.082Z,2.40
2022-11-17T23:24:16.898Z,2.40
2022-11-17T23:29:12.932Z,2.20
2022-11-17T23:31:40.566Z,2.20
2022-11-17T23:34:09.250Z,2.20
2022-11-17T23:39:04.176Z,2.00
2022-11-17T23:41:31.912Z,2.00
2022-11-17T23:43:58.957Z,2.10
2022-11-17T23:46:27.171Z,2.80
2022-11-17T23:48:58.605Z,1.90
2022-11-17T23:51:26.647Z,1.90
2022-11-17T23:53:53.248Z,2.00
2022-11-17T23:56:20.757Z,2.10
2022-11-17T23:58:47.819Z,2.00
